Wetter- und Hausseite der Bittkau's aus Magdeburg Ottersleben

Hier werden aktuelle Daten aus einer privaten Wetterstation und

lokale Wettervorhersagen bereitgestellt




Thunder radar more information blitzortung!


Rain radar more information rain snow radar



Es ist keine erhöhte Aufmerksamkeit aufgrund des Wetters notwendig.    Es gibt keine Warnungen.

METAR-Meldungen aus der Umgebung

   
EDDB - Berlin
Aktualisierung: 22.10.2021 12:20
Teilweise bewölkt  
Teilweise bewölkt  
   Wind: SW 40.7 km/h
Wind: SW 40.7 km/h
Temperatur: 9°C
Gefühlt: 4°C
Taupunkt: 3°C
Luftfeuchte: 66%
Luftdruck: 1008 hPa
Bewölkt: Teilweise bewölkt
Sichtbarkeit: More than 10 km
Bewölkung: leicht bewölkt 670.6 m,
Teilweise bewölkt 853.4 m
EDDB 221020Z 23022KT 9999 FEW022 SCT028 09/03 Q1008 TEMPO 24020G40KT
EDDP - Leipzig
Aktualisierung: 22.10.2021 11:50
Teilweise bewölkt  
Teilweise bewölkt  
   Wind: WSW 40.7 km/h
Wind: WSW 40.7 km/h
Temperatur: 9°C
Gefühlt: 4°C
Taupunkt: 3°C
Luftfeuchte: 66%
Luftdruck: 1012 hPa
Bewölkt: Teilweise bewölkt
Sichtbarkeit: More than 10 km
Bewölkung: Teilweise bewölkt 914.4 m
EDDP 220950Z 24022KT 9999 SCT030 09/03 Q1012 TEMPO 24025G40KT
EDDC - Dresden
Aktualisierung: 22.10.2021 12:20
leicht bewölkt  
leicht bewölkt  
   Wind: WSW 33.3 km/h<br />Gust to 33.3 km/h
Wind: WSW 33.3 km/h
Gust to 33.3 km/h
Temperatur: 9°C
Gefühlt: 5°C
Taupunkt: 1°C
Luftfeuchte: 58%
Luftdruck: 1013 hPa
Bewölkt: leicht bewölkt
Sichtbarkeit: More than 10 km
Bewölkung: leicht bewölkt 1036.3 m
EDDC 221020Z 25018G31KT 210V280 9999 FEW034 09/01 Q1013 TEMPO 25020G35KT
EDDE - Erfurt
Aktualisierung: 22.10.2021 12:20
Teilweise bewölkt  
Teilweise bewölkt  
   Wind: WSW 40.7 km/h<br />Gust to 40.7 km/h
Wind: WSW 40.7 km/h
Gust to 40.7 km/h
Temperatur: 9°C
Gefühlt: 4°C
Taupunkt: 3°C
Luftfeuchte: 66%
Luftdruck: 1013 hPa
Bewölkt: Teilweise bewölkt
Sichtbarkeit: More than 10 km
Bewölkung: Teilweise bewölkt 914.4 m
EDDE 221020Z 24022G32KT 9999 SCT030 09/03 Q1013 NOSIG
EDVE - Braunschweig
Aktualisierung: 22.10.2021 11:50
Stark bewölkt  
Stark bewölkt  
   Wind: WSW 40.7 km/h<br />Gust to 40.7 km/h
Wind: WSW 40.7 km/h
Gust to 40.7 km/h
Temperatur: 10°C
Gefühlt: 6°C
Taupunkt: 4°C
Luftfeuchte: 67%
Luftdruck: 1008 hPa
Bewölkt: Stark bewölkt
Sichtbarkeit: More than 10 km
Bewölkung: Teilweise bewölkt 944.9 m,
Stark bewölkt 1188.7 m
EDVE 220950Z 25022G32KT 9999 SCT031 BKN039 10/04 Q1008
EDDV - Hannover
Aktualisierung: 22.10.2021 12:20
Stark bewölkt  
Stark bewölkt  
   Wind: WSW 37 km/h<br />Gust to 37 km/h
Wind: WSW 37 km/h
Gust to 37 km/h
Temperatur: 10°C
Gefühlt: 6°C
Taupunkt: 4°C
Luftfeuchte: 67%
Luftdruck: 1008 hPa
Bewölkt: Stark bewölkt
Sichtbarkeit: More than 10 km
Bewölkung: Stark bewölkt 853.4 m
EDDV 221020Z 25020G37KT 220V280 9999 BKN028 10/04 Q1008 NOSIG
EDDE - Schwerin
Aktualisierung: 22.10.2021 12:20
Teilweise bewölkt  
Teilweise bewölkt  
   Wind: WSW 40.7 km/h<br />Gust to 40.7 km/h
Wind: WSW 40.7 km/h
Gust to 40.7 km/h
Temperatur: 9°C
Gefühlt: 4°C
Taupunkt: 3°C
Luftfeuchte: 66%
Luftdruck: 1013 hPa
Bewölkt: Teilweise bewölkt
Sichtbarkeit: More than 10 km
Bewölkung: Teilweise bewölkt 914.4 m
EDDE 221020Z 24022G32KT 9999 SCT030 09/03 Q1013 NOSIG
EDHI - Hamburg
Aktualisierung: 22.10.2021 11:50
Regenschauer, Regen, Stark bewölkt  
Regenschauer, Regen, Stark bewölkt  
   Wind: Westen 37 km/h
Wind: Westen 37 km/h
Temperatur: 8°C
Gefühlt: 3°C
Taupunkt: 7°C
Luftfeuchte: 93%
Luftdruck: 1003 hPa
Bewölkt: Stark bewölkt
Sichtbarkeit: 5 km
Bewölkung: leicht bewölkt 457.2 m,
Stark bewölkt 579.1 m
EDHI 220950Z 26020KT 5000 SHRA FEW015 BKN019 08/07 Q1003
EDDK - Köln-Bonn
Aktualisierung: 22.10.2021 12:20
Stark bewölkt  
Stark bewölkt  
   Wind: Westen 33.3 km/h<br />Gust to 33.3 km/h
Wind: Westen 33.3 km/h
Gust to 33.3 km/h
Temperatur: 10°C
Gefühlt: 6°C
Taupunkt: 5°C
Luftfeuchte: 71%
Luftdruck: 1017 hPa
Bewölkt: Stark bewölkt
Sichtbarkeit: More than 10 km
Bewölkung: Teilweise bewölkt 1005.8 m,
Stark bewölkt 1219.2 m
EDDK 221020Z 26018G28KT 9999 SCT033 BKN040 10/05 Q1017 NOSIG

Script entwickelt von  Saratoga-weather.org Angepasst für das Template von  Weerstation Leuven

Sie finden die Wetterinfo auch auf:

Wetternetzwerk Deutschland

European Weather Network

Weather Underground

Regionalwetter-SA

wetter.com

wxforum.de

Genutzte Hardware, Software und WEB Anbieter:

Wetterstation
Ventus W928-Ultimate

Wetterprogramm
Weather Display

WetterComputer
RaspberryPI

Anbieter

Ventus W928-Ultimate

Weather Display

RaspberryPI